West Farmington, Ohio
Current Conditions -  °F | °C
As of 7:18 AM on Friday 28 Nov 2014 (Local Time) from KYNG Reporting Station
Light Snow Light Snow  
Wind Chill:   Ceiling: 2200
Heat Index: 20°   Visibility: 10mi
Dew Point: 13°   Wind: 10mph
Humidity: 74%   Direction: 260°W
Pressure: 30.28"   Gusts: NA
Location:  41.39°N, 80.97°W
Report Text: KYNG 281218Z 26009KT 10SM -SN FEW009 BKN022 BKN040 M07/M11 A3028 RMK AO2 SNB18 P0000 T10671106
Loading
Personal Weather Stations






























Interactive Weather Map New forecast layout! Learn more

10-Day Weather Forecast

Advertisements
Track Severe Weather on mobile